Santos — OH3712 — position and weather

sailwx.info

Track history (hours):
 
Tides and Currents Weather Stations Pressure Air Temp Water Temp Dewpoint Dewpoint Depression Visibility Wind Speed Wind Dir Waves Ship Positions

Santos

Last reported at 2018-Apr-14 03:37 UTC. Time now 2018-Apr-21 16:56 UTC.
Position N 60°57' E 018°56'.

Length 32 m; draft 5.5 m.

Type: Fishing. MMSI: 230061850.

Date/timePositionNaut miles runAvg speedWind from/ knotsBaromVisibWave heightAir tempDewpointWater temp
2018-Apr-14 03:37N 60°57' E 018°56'3 0.1
2018-Apr-13 06:12N 60°60' E 018°55'1 2.5
2018-Apr-13 05:40N 60°60' E 018°57'8 1.2
2018-Apr-12 23:24N 60°52' E 018°53'3 2.6
2018-Apr-12 22:23N 60°50' E 018°55'1 2.6
2018-Apr-12 21:57N 60°49' E 018°56'1 2.6
2018-Apr-12 21:28N 60°48' E 018°58'3 2.8
2018-Apr-12 20:30N 60°50' E 018°54'1 2.0
2018-Apr-12 19:57N 60°49' E 018°56'3 0.4
2018-Apr-12 11:25N 60°48' E 019°02'1 0.1
2018-Apr-12 01:32N 60°47' E 019°03'0 2.3
2018-Apr-12 01:30N 60°47' E 019°03'2 2.4
2018-Apr-12 00:47N 60°46' E 019°06'4 0.7
2018-Apr-11 19:37N 60°49' E 019°01'0 2.5
2018-Apr-11 19:30N 60°49' E 019°01'  
Track history (hours):
 
Tides and Currents Weather Stations Pressure Air Temp Water Temp Dewpoint Dewpoint Depression Visibility Wind Speed Wind Dir Waves Ship Positions

Santos

Last reported at 2018-Apr-14 03:37 UTC. Time now 2018-Apr-21 16:56 UTC.
Position N 60°57' E 018°56'.

Length 32 m; draft 5.5 m.

Type: Fishing. MMSI: 230061850.

Date/timePositionNaut miles runAvg speedWind from/ knotsBaromVisibWave heightAir tempDewpointWater temp
2018-Apr-14 03:37N 60°57' E 018°56'3 0.1
2018-Apr-13 06:12N 60°60' E 018°55'1 2.5
2018-Apr-13 05:40N 60°60' E 018°57'8 1.2
2018-Apr-12 23:24N 60°52' E 018°53'3 2.6
2018-Apr-12 22:23N 60°50' E 018°55'1 2.6
2018-Apr-12 21:57N 60°49' E 018°56'1 2.6
2018-Apr-12 21:28N 60°48' E 018°58'3 2.8
2018-Apr-12 20:30N 60°50' E 018°54'1 2.0
2018-Apr-12 19:57N 60°49' E 018°56'3 0.4
2018-Apr-12 11:25N 60°48' E 019°02'1 0.1
2018-Apr-12 01:32N 60°47' E 019°03'0 2.3
2018-Apr-12 01:30N 60°47' E 019°03'2 2.4
2018-Apr-12 00:47N 60°46' E 019°06'4 0.7
2018-Apr-11 19:37N 60°49' E 019°01'0 2.5
2018-Apr-11 19:30N 60°49' E 019°01'  

Dump ship's entire track history